Time;durP1;ratioP1;P1;durP2;ratioP2;P2;SDS_P1;SDS_P2;PMS_P1;PMS_P2;Temp;Humidity;BMP_temperature;BMP_pressure;BME280_temperature;BME280_humidity;BME280_pressure;Samples;Min_cycle;Max_cycle;Signal;HPM_P1;HPM_P2
2022/11/27 00:00:21;;;;;;;8.48;4.13;;;;;;;2.94;63.87;93572.50;5070109;28;20036;-73
2022/11/27 00:02:47;;;;;;;7.18;3.90;;;;;;;2.92;64.13;93580.47;5068424;28;20493;-73
2022/11/27 00:05:13;;;;;;;9.48;4.38;;;;;;;2.93;64.42;93574.31;5070636;28;20489;-73
2022/11/27 00:07:38;;;;;;;8.15;4.30;;;;;;;2.90;64.27;93579.91;5071120;28;20032;-73
2022/11/27 00:10:05;;;;;;;7.07;3.55;;;;;;;2.84;64.99;93570.41;5072212;28;20028;-73
2022/11/27 00:12:30;;;;;;;9.57;4.00;;;;;;;2.84;64.97;93578.19;5088820;28;20089;-73
2022/11/27 00:14:56;;;;;;;8.48;3.47;;;;;;;2.83;64.91;93569.59;5091211;28;20036;-72
2022/11/27 00:17:21;;;;;;;7.65;3.35;;;;;;;2.82;63.94;93575.00;5090279;28;20100;-73
2022/11/27 00:19:47;;;;;;;6.88;3.47;;;;;;;2.80;64.16;93569.25;5078241;28;20129;-73
2022/11/27 00:22:13;;;;;;;8.52;3.65;;;;;;;2.79;63.68;93571.06;5088531;28;20106;-73
2022/11/27 00:24:38;;;;;;;6.85;3.90;;;;;;;2.80;63.31;93571.84;5089933;28;20123;-73
2022/11/27 00:27:04;;;;;;;6.93;3.20;;;;;;;2.78;64.13;93573.84;5089782;28;20597;-73
2022/11/27 00:29:30;;;;;;;7.85;3.00;;;;;;;2.76;63.66;93566.28;5089341;28;20111;-73
2022/11/27 00:31:56;;;;;;;6.05;3.03;;;;;;;2.77;63.46;93569.66;5082337;28;20508;-73
2022/11/27 00:34:22;;;;;;;7.07;3.35;;;;;;;2.75;63.75;93571.66;5083004;28;20036;-73
2022/11/27 00:36:47;;;;;;;7.28;3.42;;;;;;;2.72;64.10;93567.69;5069476;28;20045;-73
2022/11/27 00:39:13;;;;;;;5.97;2.70;;;;;;;2.70;63.98;93567.13;5069711;28;20094;-73
2022/11/27 00:41:38;;;;;;;5.60;2.88;;;;;;;2.68;64.63;93563.97;5070551;28;20036;-73
2022/11/27 00:44:04;;;;;;;7.03;2.55;;;;;;;2.64;64.83;93566.19;5069698;28;20045;-73
2022/11/27 00:46:32;;;;;;;5.90;2.28;;;;;;;2.60;64.73;93557.25;5070440;28;20505;-73
2022/11/27 00:49:00;;;;;;;5.57;2.40;;;;;;;2.58;63.91;93561.84;5069445;28;20449;-73
2022/11/27 00:51:27;;;;;;;8.57;3.10;;;;;;;2.57;63.87;93562.84;5069210;28;20107;-73
2022/11/27 00:53:54;;;;;;;4.88;2.60;;;;;;;2.54;64.46;93558.09;5101644;28;20490;-74
2022/11/27 00:56:25;;;;;;;4.90;2.65;;;;;;;2.53;63.78;93564.28;5070346;28;20032;-73
2022/11/27 00:58:52;;;;;;;4.60;2.20;;;;;;;2.49;63.69;93563.09;5069208;28;20409;-73
2022/11/27 01:01:20;;;;;;;5.32;2.22;;;;;;;2.47;63.41;93563.31;5070529;28;20328;-73
2022/11/27 01:03:46;;;;;;;4.80;2.17;;;;;;;2.48;63.41;93569.28;5071841;28;20058;-73
2022/11/27 01:06:13;;;;;;;5.78;2.70;;;;;;;2.49;63.42;93558.72;5070569;28;20028;-73
2022/11/27 01:08:40;;;;;;;4.85;2.63;;;;;;;2.50;63.73;93562.13;5070453;28;20032;-73
2022/11/27 01:11:05;;;;;;;6.07;2.88;;;;;;;2.53;63.77;93566.84;5072693;28;20390;-74
2022/11/27 01:13:33;;;;;;;6.18;2.63;;;;;;;2.55;64.17;93553.72;5078315;28;20035;-73
2022/11/27 01:16:09;;;;;;;7.35;3.05;;;;;;;2.52;65.07;93554.91;5094440;28;20040;-73
2022/11/27 01:18:36;;;;;;;4.80;2.60;;;;;;;2.52;64.99;93559.31;5092236;28;20490;-73
2022/11/27 01:21:03;;;;;;;7.30;2.75;;;;;;;2.50;65.84;93562.13;5074954;28;20036;-73
2022/11/27 01:23:29;;;;;;;5.13;2.67;;;;;;;2.45;65.96;93565.31;5092243;28;20034;-73
2022/11/27 01:25:55;;;;;;;7.78;2.58;;;;;;;2.39;67.08;93562.78;5094331;28;20028;-73
2022/11/27 01:28:22;;;;;;;5.20;2.45;;;;;;;2.37;66.32;93559.63;5094137;28;20028;-73
2022/11/27 01:30:49;;;;;;;6.05;2.47;;;;;;;2.37;67.19;93564.78;5094256;28;20110;-73
2022/11/27 01:33:15;;;;;;;6.07;2.28;;;;;;;2.35;67.11;93564.22;5093011;28;20101;-73
2022/11/27 01:35:40;;;;;;;5.85;2.40;;;;;;;2.34;67.14;93567.78;5093387;28;20039;-73
2022/11/27 01:38:06;;;;;;;6.55;2.50;;;;;;;2.34;66.50;93557.44;5093869;28;20044;-73
2022/11/27 01:40:32;;;;;;;4.68;2.00;;;;;;;2.34;66.15;93560.03;5094140;28;20078;-74
2022/11/27 01:42:57;;;;;;;3.85;1.92;;;;;;;2.37;64.59;93554.47;5092818;28;20040;-73
2022/11/27 01:45:23;;;;;;;3.47;1.95;;;;;;;2.37;64.05;93554.47;5091960;28;20024;-74
2022/11/27 01:47:49;;;;;;;3.67;1.92;;;;;;;2.35;63.75;93543.53;5092608;28;20039;-74
2022/11/27 01:50:36;;;;;;;4.35;2.00;;;;;;;2.32;63.24;93543.94;5092348;28;20040;-74
2022/11/27 01:53:11;;;;;;;3.40;1.80;;;;;;;2.24;63.55;93543.19;5092334;28;20069;-74
2022/11/27 01:55:46;;;;;;;4.40;1.73;;;;;;;2.20;63.23;93544.59;5092825;28;20486;-73
2022/11/27 01:58:17;;;;;;;4.18;2.00;;;;;;;2.17;63.54;93552.00;5092020;28;20035;-73
2022/11/27 02:00:43;;;;;;;3.90;1.83;;;;;;;2.13;62.85;93543.06;5092590;28;20536;-73
2022/11/27 02:03:08;;;;;;;5.07;2.08;;;;;;;2.11;62.98;93543.28;5092317;28;20040;-73
2022/11/27 02:05:34;;;;;;;3.85;1.80;;;;;;;2.09;62.53;93534.94;5074704;28;20101;-73
2022/11/27 02:08:06;;;;;;;3.67;1.83;;;;;;;2.07;63.08;93531.75;5093419;28;20028;-74
2022/11/27 02:10:48;;;;;;;2.95;1.60;;;;;;;2.05;62.83;93539.75;5093694;28;20046;-73
2022/11/27 02:13:42;;;;;;;5.10;1.70;;;;;;;2.03;63.76;93530.63;5092167;28;20062;-73
2022/11/27 02:16:20;;;;;;;4.78;2.10;;;;;;;2.04;63.80;93532.97;5087152;28;20075;-74
2022/11/27 02:19:05;;;;;;;4.78;1.75;;;;;;;2.07;65.47;93542.91;5093281;28;20032;-74
2022/11/27 02:21:44;;;;;;;4.13;1.77;;;;;;;2.10;68.59;93541.69;5071396;28;20051;-73
2022/11/27 02:24:30;;;;;;;5.50;2.00;;;;;;;2.08;70.78;93533.38;5071660;28;20032;-73
2022/11/27 02:27:21;;;;;;;4.43;1.90;;;;;;;2.05;71.99;93526.03;5078381;28;20043;-73
2022/11/27 02:29:52;;;;;;;5.10;2.15;;;;;;;2.03;72.22;93531.41;5093196;28;20028;-73
2022/11/27 02:32:38;;;;;;;5.20;2.08;;;;;;;2.02;72.58;93516.09;5108872;28;20067;-73
2022/11/27 02:35:29;;;;;;;8.45;2.05;;;;;;;2.02;72.61;93513.53;5091160;28;20188;-73
2022/11/27 02:38:00;;;;;;;4.97;2.00;;;;;;;2.02;72.70;93508.34;5083365;28;20044;-73
2022/11/27 02:40:30;;;;;;;5.97;2.20;;;;;;;2.00;72.79;93505.19;5072594;28;20048;-73
2022/11/27 02:43:08;;;;;;;3.88;1.85;;;;;;;1.97;71.54;93503.81;5071137;28;20037;-73
2022/11/27 02:45:38;;;;;;;3.75;1.92;;;;;;;1.95;71.50;93497.28;5072634;28;20033;-73
2022/11/27 02:48:06;;;;;;;5.07;1.80;;;;;;;1.92;71.10;93503.66;5075553;28;20083;-73
2022/11/27 02:50:35;;;;;;;3.88;1.73;;;;;;;1.91;70.73;93520.13;5071209;28;20031;-73
2022/11/27 02:53:06;;;;;;;3.60;1.90;;;;;;;1.88;70.70;93518.75;5072084;28;20044;-73
2022/11/27 02:55:35;;;;;;;2.57;1.70;;;;;;;1.91;70.05;93521.94;5082133;28;20028;-73
2022/11/27 02:58:04;;;;;;;4.05;1.80;;;;;;;1.88;70.12;93521.34;5091511;28;20484;-73
2022/11/27 03:00:33;;;;;;;4.28;1.92;;;;;;;1.92;70.86;93519.16;5106510;28;20544;-74
2022/11/27 03:03:04;;;;;;;5.45;2.13;;;;;;;1.91;70.64;93514.19;5091176;28;20066;-73
2022/11/27 03:05:35;;;;;;;5.45;2.30;;;;;;;1.87;71.47;93509.44;5091275;28;20097;-73
2022/11/27 03:08:03;;;;;;;5.25;2.10;;;;;;;1.85;71.26;93511.44;5092272;28;20061;-73
2022/11/27 03:10:35;;;;;;;5.05;2.28;;;;;;;1.82;71.74;93514.44;5074653;28;20106;-73
2022/11/27 03:13:02;;;;;;;5.07;2.33;;;;;;;1.80;71.05;93515.63;5070909;28;20043;-73
2022/11/27 03:15:41;;;;;;;6.05;2.70;;;;;;;1.80;71.39;93506.13;5070791;28;20071;-73
2022/11/27 03:18:23;;;;;;;8.77;3.20;;;;;;;1.79;70.75;93496.78;5071682;28;20032;-73
2022/11/27 03:20:56;;;;;;;6.10;2.70;;;;;;;1.80;71.24;93498.38;5088446;28;20024;-73
2022/11/27 03:23:22;;;;;;;5.43;2.53;;;;;;;1.78;71.87;93502.94;5090036;28;20035;-73
2022/11/27 03:25:47;;;;;;;6.70;2.65;;;;;;;1.75;72.28;93497.38;5084914;28;20031;-74
2022/11/27 03:28:14;;;;;;;6.80;2.83;;;;;;;1.72;71.97;93493.44;5071351;28;20118;-73
2022/11/27 03:30:40;;;;;;;5.30;2.30;;;;;;;1.71;71.86;93499.59;5070497;28;20047;-74
2022/11/27 03:33:06;;;;;;;5.07;2.70;;;;;;;1.71;71.71;93499.59;5070062;28;20050;-73
2022/11/27 03:35:31;;;;;;;6.78;3.00;;;;;;;1.71;72.01;93502.16;5071261;28;20119;-73
2022/11/27 03:37:57;;;;;;;5.90;2.63;;;;;;;1.72;71.09;93502.97;5070163;28;20135;-73
2022/11/27 03:40:29;;;;;;;5.60;2.60;;;;;;;1.74;71.22;93506.94;5071541;28;20143;-73
2022/11/27 03:43:01;;;;;;;4.72;2.50;;;;;;;1.75;70.73;93502.56;5088989;28;20032;-73
2022/11/27 03:45:39;;;;;;;5.03;2.28;;;;;;;1.74;70.57;93503.56;5091732;28;20501;-73
2022/11/27 03:48:12;;;;;;;4.72;2.40;;;;;;;1.72;70.97;93503.75;5089327;28;20031;-73
2022/11/27 03:50:50;;;;;;;5.53;2.70;;;;;;;1.69;71.31;93504.19;5091630;28;20028;-73
2022/11/27 03:53:32;;;;;;;6.15;2.65;;;;;;;1.69;72.05;93504.19;5071262;28;20052;-73
2022/11/27 03:56:17;;;;;;;5.13;2.55;;;;;;;1.64;72.60;93502.22;5070972;28;20082;-73
2022/11/27 03:58:50;;;;;;;5.65;2.72;;;;;;;1.63;71.99;93505.78;5069812;28;20040;-74
2022/11/27 04:01:20;;;;;;;6.90;2.75;;;;;;;1.64;72.40;93506.56;5069926;28;20032;-73
2022/11/27 04:03:45;;;;;;;5.47;2.47;;;;;;;1.64;72.22;93502.22;5071176;28;20017;-73
2022/11/27 04:06:11;;;;;;;6.50;3.15;;;;;;;1.64;72.45;93504.81;5071857;28;20028;-73
2022/11/27 04:08:38;;;;;;;5.13;2.80;;;;;;;1.63;72.23;93499.84;5069865;28;20036;-73
2022/11/27 04:11:04;;;;;;;5.93;2.50;;;;;;;1.63;71.99;93498.03;5071333;28;20062;-73
2022/11/27 04:13:29;;;;;;;6.82;2.95;;;;;;;1.64;72.29;93502.22;5070874;28;20052;-73
2022/11/27 04:15:55;;;;;;;5.85;2.75;;;;;;;1.67;71.77;93488.13;5069849;28;20036;-73
2022/11/27 04:18:20;;;;;;;6.35;2.70;;;;;;;1.66;72.00;93489.09;5069553;28;20033;-73
2022/11/27 04:20:46;;;;;;;6.05;2.60;;;;;;;1.66;72.13;93487.28;5087416;28;20048;-73
2022/11/27 04:23:11;;;;;;;5.07;2.72;;;;;;;1.66;71.78;93489.09;5072914;28;20046;-73
2022/11/27 04:25:37;;;;;;;6.57;2.97;;;;;;;1.66;71.62;93492.47;5090320;28;20021;-73
2022/11/27 04:28:02;;;;;;;5.93;3.08;;;;;;;1.65;71.24;93487.53;5089516;28;20060;-73
2022/11/27 04:30:28;;;;;;;6.47;3.22;;;;;;;1.66;71.51;93483.94;5089879;28;20050;-73
2022/11/27 04:32:53;;;;;;;7.35;3.28;;;;;;;1.64;72.62;93485.91;5089598;28;20111;-73
2022/11/27 04:35:19;;;;;;;6.45;2.67;;;;;;;1.61;71.74;93481.19;5072053;28;20052;-73
2022/11/27 04:37:44;;;;;;;8.27;3.00;;;;;;;1.61;71.72;93481.97;5090824;28;20047;-73
2022/11/27 04:40:11;;;;;;;5.47;3.30;;;;;;;1.61;72.19;93481.19;5089362;28;20031;-73
2022/11/27 04:42:36;;;;;;;6.60;2.92;;;;;;;1.60;71.83;93479.59;5089475;28;20044;-73
2022/11/27 04:45:02;;;;;;;5.60;2.97;;;;;;;1.58;72.57;93489.34;5090083;28;20039;-73
2022/11/27 04:47:28;;;;;;;6.70;2.95;;;;;;;1.58;72.35;93482.41;5076772;28;20051;-73
2022/11/27 04:49:53;;;;;;;7.68;2.90;;;;;;;1.56;72.29;93484.38;5095062;28;20061;-73
2022/11/27 04:52:19;;;;;;;6.45;2.88;;;;;;;1.55;72.40;93487.16;5083358;28;20532;-73
2022/11/27 04:54:44;;;;;;;5.57;2.78;;;;;;;1.54;72.70;93491.53;5052927;28;20545;-74
2022/11/27 04:57:10;;;;;;;7.53;2.50;;;;;;;1.53;73.61;93499.47;5020248;28;20037;-73
2022/11/27 04:59:36;;;;;;;6.00;2.38;;;;;;;1.49;73.35;93482.81;5054615;28;20048;-73
2022/11/27 05:02:02;;;;;;;5.75;2.45;;;;;;;1.49;73.14;93495.72;5036936;28;20028;-73
2022/11/27 05:04:28;;;;;;;4.10;1.98;;;;;;;1.45;73.39;93500.50;5038339;28;20037;-73
2022/11/27 05:06:54;;;;;;;4.60;2.40;;;;;;;1.45;73.00;93498.72;5054260;28;20033;-73
2022/11/27 05:09:20;;;;;;;5.05;2.05;;;;;;;1.45;73.19;93497.94;5053190;28;20043;-73
2022/11/27 05:11:45;;;;;;;4.38;1.95;;;;;;;1.45;72.82;93498.72;5055247;28;20358;-73
2022/11/27 05:14:14;;;;;;;7.00;2.03;;;;;;;1.45;72.15;93498.72;5054225;28;20041;-73
2022/11/27 05:16:51;;;;;;;6.03;2.50;;;;;;;1.47;72.09;93495.16;5056671;28;20037;-73
2022/11/27 05:19:19;;;;;;;3.97;2.17;;;;;;;1.45;71.47;93506.47;5055463;28;20099;-73
2022/11/27 05:21:47;;;;;;;3.92;2.30;;;;;;;1.44;72.49;93501.50;5072345;28;20032;-73
2022/11/27 05:24:15;;;;;;;4.00;2.30;;;;;;;1.44;72.18;93498.91;5068266;28;20548;-73
2022/11/27 05:26:41;;;;;;;4.95;1.90;;;;;;;1.41;70.88;93499.34;5056750;28;20473;-73
2022/11/27 05:29:07;;;;;;;4.28;2.05;;;;;;;1.37;69.80;93498.16;5054025;28;20108;-73
2022/11/27 05:31:34;;;;;;;4.68;2.15;;;;;;;1.36;70.02;93494.00;5052838;28;20044;-73
2022/11/27 05:34:00;;;;;;;4.15;2.10;;;;;;;1.37;69.58;93500.72;5053777;28;20477;-74
2022/11/27 05:36:26;;;;;;;3.63;1.88;;;;;;;1.36;69.94;93491.44;5056793;28;20063;-73
2022/11/27 05:38:51;;;;;;;4.85;2.00;;;;;;;1.31;70.33;93489.47;5053836;28;20059;-73
2022/11/27 05:41:17;;;;;;;5.70;2.40;;;;;;;1.30;70.31;93494.81;5052726;28;20067;-73
2022/11/27 05:43:42;;;;;;;3.97;2.10;;;;;;;1.26;71.17;93491.84;5019316;28;20375;-73
2022/11/27 05:46:11;;;;;;;5.25;2.13;;;;;;;1.25;70.75;93487.69;5065346;28;20048;-73
2022/11/27 05:48:37;;;;;;;5.45;2.00;;;;;;;1.21;70.43;93487.28;5035560;28;20032;-73
2022/11/27 05:51:04;;;;;;;4.05;2.00;;;;;;;1.22;70.27;93493.25;5053692;28;20032;-73
2022/11/27 05:53:29;;;;;;;3.55;1.75;;;;;;;1.22;69.86;93493.25;5053256;28;20056;-73
2022/11/27 05:56:07;;;;;;;4.95;2.10;;;;;;;1.21;69.46;93487.28;5035706;28;20552;-73
2022/11/27 05:58:34;;;;;;;3.22;1.60;;;;;;;1.27;69.36;93495.22;5035303;28;20124;-73
2022/11/27 06:01:00;;;;;;;4.95;1.92;;;;;;;1.29;67.37;93494.03;5053370;28;20068;-73
2022/11/27 06:03:26;;;;;;;5.25;1.67;;;;;;;1.31;66.88;93497.19;5035626;28;20040;-73
2022/11/27 06:05:52;;;;;;;3.70;1.80;;;;;;;1.34;66.29;93501.94;5053347;28;20110;-73
2022/11/27 06:08:18;;;;;;;4.03;1.67;;;;;;;1.33;65.73;93499.56;5036256;28;20545;-73
2022/11/27 06:10:45;;;;;;;3.00;1.60;;;;;;;1.31;65.49;93502.34;5018563;28;20055;-73
2022/11/27 06:13:11;;;;;;;4.50;1.80;;;;;;;1.31;65.94;93496.41;5035368;28;20090;-73
2022/11/27 06:15:37;;;;;;;4.45;1.95;;;;;;;1.29;65.81;93499.19;5053331;28;20028;-74
2022/11/27 06:18:03;;;;;;;5.25;1.95;;;;;;;1.27;65.96;93488.28;5042850;28;20086;-73
2022/11/27 06:20:29;;;;;;;3.38;1.80;;;;;;;1.29;66.13;93486.28;5071990;28;20044;-73
2022/11/27 06:22:55;;;;;;;2.55;1.50;;;;;;;1.29;65.40;93486.28;5071875;28;20025;-73
2022/11/27 06:25:21;;;;;;;2.65;1.50;;;;;;;1.33;65.10;93486.66;5055154;28;20040;-74
2022/11/27 06:27:47;;;;;;;3.30;1.70;;;;;;;1.33;64.77;93484.06;5067605;28;20033;-74
2022/11/27 06:30:13;;;;;;;2.72;1.58;;;;;;;1.35;64.87;93477.75;5053030;28;20028;-74
2022/11/27 06:32:38;;;;;;;3.10;1.70;;;;;;;1.35;64.64;93488.06;5052940;28;20152;-74
2022/11/27 06:35:04;;;;;;;4.10;1.50;;;;;;;1.37;63.94;93480.88;5052872;28;20036;-74
2022/11/27 06:37:30;;;;;;;2.85;1.50;;;;;;;1.36;64.37;93487.06;5034671;28;20032;-73
2022/11/27 06:39:55;;;;;;;3.28;1.70;;;;;;;1.37;64.54;93486.03;5052970;28;20040;-73
2022/11/27 06:42:21;;;;;;;3.70;1.80;;;;;;;1.35;64.89;93488.06;5072790;28;20040;-73
2022/11/27 06:44:47;;;;;;;4.20;1.80;;;;;;;1.36;65.26;93489.63;5072757;28;20027;-73
2022/11/27 06:47:12;;;;;;;3.92;1.60;;;;;;;1.39;65.17;93489.22;5072684;28;20120;-74
2022/11/27 06:49:38;;;;;;;2.75;1.60;;;;;;;1.43;65.26;93487.81;5044983;28;20047;-74
2022/11/27 06:52:04;;;;;;;3.38;1.50;;;;;;;1.51;65.39;93484.22;5025904;28;20073;-74
2022/11/27 06:54:29;;;;;;;3.58;1.58;;;;;;;1.58;64.59;93484.19;4995411;28;20514;-74
2022/11/27 06:56:55;;;;;;;3.53;1.40;;;;;;;1.64;64.10;93486.75;5011011;28;20165;-74
2022/11/27 06:59:21;;;;;;;3.10;1.52;;;;;;;1.74;63.01;93486.28;5016309;28;20399;-74
2022/11/27 07:01:46;;;;;;;3.80;1.30;;;;;;;1.83;61.53;93484.25;5025947;28;20076;-78
2022/11/27 07:04:13;;;;;;;3.05;1.17;;;;;;;2.05;61.67;93492.47;5028023;28;20033;-74
2022/11/27 07:06:41;;;;;;;2.13;1.40;;;;;;;3.02;61.61;93494.66;5031868;28;20395;-75
2022/11/27 07:09:08;;;;;;;4.90;1.55;;;;;;;4.22;61.66;93493.94;5029226;28;20045;-73
2022/11/27 07:11:34;;;;;;;2.63;1.42;;;;;;;5.09;59.11;93489.94;5032189;28;20047;-74
2022/11/27 07:14:02;;;;;;;3.90;1.80;;;;;;;5.78;55.12;93493.41;5029975;28;20036;-74
2022/11/27 07:16:30;;;;;;;2.78;1.42;;;;;;;6.41;52.86;93494.28;5032479;28;20053;-75
2022/11/27 07:19:04;;;;;;;4.13;2.15;;;;;;;6.79;50.03;93492.78;5027286;28;20045;-75
2022/11/27 07:21:30;;;;;;;5.68;2.35;;;;;;;6.80;48.93;93498.78;5011109;28;20040;-74
2022/11/27 07:23:56;;;;;;;5.60;2.60;;;;;;;6.65;48.65;93494.16;5012811;28;20466;-75
2022/11/27 07:26:25;;;;;;;3.35;1.90;;;;;;;6.42;49.24;93498.47;5011117;28;20125;-74
2022/11/27 07:28:51;;;;;;;3.13;1.52;;;;;;;6.28;48.27;93501.59;5012045;28;20097;-74
2022/11/27 07:31:20;;;;;;;2.33;1.38;;;;;;;6.20;48.71;93493.16;5012205;28;20051;-75
2022/11/27 07:33:45;;;;;;;3.72;1.60;;;;;;;6.72;48.85;93497.38;5010993;28;20121;-74
2022/11/27 07:36:19;;;;;;;3.80;1.67;;;;;;;7.68;47.28;93498.94;5011915;28;20069;-75
2022/11/27 07:38:45;;;;;;;5.68;1.83;;;;;;;8.69;45.59;93487.13;5010854;28;20033;-76
2022/11/27 07:41:11;;;;;;;2.72;1.67;;;;;;;9.71;42.90;93481.72;5011937;28;20049;-76
2022/11/27 07:43:37;;;;;;;2.95;1.50;;;;;;;10.73;40.16;93483.78;5011150;28;20045;-75
2022/11/27 07:46:07;;;;;;;3.20;1.60;;;;;;;11.26;37.93;93489.50;5027359;28;20419;-76
2022/11/27 07:48:33;;;;;;;3.10;1.50;;;;;;;12.68;36.37;93481.25;5011713;28;20033;-76
2022/11/27 07:50:59;;;;;;;2.10;1.33;;;;;;;14.13;33.03;93485.56;5026962;28;20472;-75
2022/11/27 07:53:25;;;;;;;3.63;1.63;;;;;;;13.95;32.61;93486.31;5044178;28;20095;-74
2022/11/27 07:55:50;;;;;;;3.67;2.05;;;;;;;13.79;32.51;93488.38;5033629;28;20060;-75
2022/11/27 07:58:16;;;;;;;3.92;2.15;;;;;;;12.84;34.17;93484.53;5050936;28;20514;-74
2022/11/27 08:00:41;;;;;;;3.67;1.67;;;;;;;13.03;33.67;93488.03;5017026;28;20032;-74
2022/11/27 08:03:09;;;;;;;3.42;1.80;;;;;;;12.28;35.46;93485.72;5051228;28;20040;-75
2022/11/27 08:05:35;;;;;;;3.83;1.85;;;;;;;11.67;36.94;93499.88;5051329;28;20525;-75
2022/11/27 08:08:03;;;;;;;6.25;1.67;;;;;;;11.69;35.99;93492.53;5033392;28;20128;-74
2022/11/27 08:10:30;;;;;;;2.80;1.50;;;;;;;11.40;37.15;93503.59;5051190;28;20060;-74
2022/11/27 08:12:56;;;;;;;3.85;1.70;;;;;;;11.32;37.52;93500.72;5051082;28;20037;-75
2022/11/27 08:15:22;;;;;;;4.10;1.67;;;;;;;11.74;36.97;93494.34;5049755;28;20048;-74
2022/11/27 08:17:48;;;;;;;2.80;1.60;;;;;;;11.96;37.00;93497.41;5033214;28;20672;-74
2022/11/27 08:20:14;;;;;;;3.25;1.60;;;;;;;12.71;36.15;93491.97;5050679;28;20053;-74
2022/11/27 08:22:39;;;;;;;2.78;1.60;;;;;;;12.84;35.22;93495.81;5049560;28;20560;-75
2022/11/27 08:25:05;;;;;;;2.60;1.50;;;;;;;13.08;32.44;93495.91;5049764;28;20479;-75
2022/11/27 08:27:32;;;;;;;3.75;1.60;;;;;;;14.94;31.11;93501.31;5050811;28;20021;-74
2022/11/27 08:29:58;;;;;;;3.22;1.40;;;;;;;15.86;29.93;93504.22;5033174;28;20119;-74
2022/11/27 08:32:24;;;;;;;2.92;1.50;;;;;;;15.12;31.54;93501.56;5049663;28;20086;-74
2022/11/27 08:34:50;;;;;;;2.47;1.40;;;;;;;14.32;31.32;93488.22;5049661;28;20131;-74
2022/11/27 08:37:16;;;;;;;2.58;1.50;;;;;;;13.62;32.93;93485.41;5049483;28;20048;-74
2022/11/27 08:39:41;;;;;;;3.33;1.73;;;;;;;13.12;34.08;93491.63;5032992;28;20245;-74
2022/11/27 08:42:07;;;;;;;3.97;1.67;;;;;;;11.99;34.56;93494.25;5050891;28;20025;-75
2022/11/27 08:44:32;;;;;;;3.90;1.80;;;;;;;11.14;37.73;93499.44;5049271;28;20044;-74
2022/11/27 08:46:58;;;;;;;3.47;1.65;;;;;;;11.11;36.99;93494.75;5051000;28;20044;-75
2022/11/27 08:49:23;;;;;;;4.15;1.70;;;;;;;10.69;38.71;93486.13;5052370;28;20025;-76
2022/11/27 08:51:49;;;;;;;2.63;1.58;;;;;;;11.36;36.49;93488.69;5033516;28;20037;-74
2022/11/27 08:54:14;;;;;;;3.38;1.60;;;;;;;11.74;35.00;93482.00;5049535;28;20120;-75
2022/11/27 08:56:40;;;;;;;2.15;1.35;;;;;;;12.17;34.49;93478.94;5016386;28;20561;-75
2022/11/27 08:59:05;;;;;;;3.40;1.52;;;;;;;11.90;34.13;93484.59;5050563;28;20073;-75
2022/11/27 09:01:32;;;;;;;2.75;1.40;;;;;;;11.57;36.48;93487.56;5049281;28;20043;-75
2022/11/27 09:03:58;;;;;;;3.00;1.70;;;;;;;11.12;37.34;93480.59;5032916;28;20017;-74
2022/11/27 09:06:29;;;;;;;4.45;1.77;;;;;;;10.61;38.45;93481.41;5050373;28;20445;-73
2022/11/27 09:08:56;;;;;;;2.50;1.50;;;;;;;9.95;40.05;93479.44;5049254;28;20525;-73
2022/11/27 09:11:22;;;;;;;4.15;1.85;;;;;;;9.75;40.26;93486.19;5049828;28;20063;-74
2022/11/27 09:13:48;;;;;;;3.20;1.77;;;;;;;9.59;41.10;93480.13;5033553;28;20044;-74
2022/11/27 09:16:17;;;;;;;3.50;1.70;;;;;;;9.63;41.13;93484.81;5033171;28;20078;-74
2022/11/27 09:18:47;;;;;;;4.63;1.90;;;;;;;9.54;41.83;93481.91;5049165;28;20052;-73
2022/11/27 09:21:14;;;;;;;4.60;2.10;;;;;;;9.24;39.73;93478.09;5050692;28;20041;-74
2022/11/27 09:23:40;;;;;;;5.38;2.80;;;;;;;9.16;40.29;93481.19;5050442;28;20064;-74
2022/11/27 09:26:09;;;;;;;5.35;2.10;;;;;;;9.11;39.47;93479.31;5050439;28;20025;-74
2022/11/27 09:28:36;;;;;;;4.60;1.85;;;;;;;8.93;41.03;93477.91;5049292;28;20040;-74
2022/11/27 09:31:04;;;;;;;3.85;1.92;;;;;;;9.12;40.28;93483.53;5049131;28;20033;-74
2022/11/27 09:33:31;;;;;;;4.00;1.90;;;;;;;8.94;39.72;93471.66;5035856;28;20040;-74
2022/11/27 09:35:57;;;;;;;3.40;1.63;;;;;;;9.09;41.24;93470.94;5052859;28;20036;-73
2022/11/27 09:38:23;;;;;;;3.38;1.80;;;;;;;8.94;43.07;93474.28;5036054;28;20427;-74
2022/11/27 09:40:51;;;;;;;3.55;1.92;;;;;;;8.68;43.00;93473.28;5036300;28;20036;-75
2022/11/27 09:43:26;;;;;;;4.43;2.10;;;;;;;8.83;44.90;93477.84;5053900;28;20510;-74
2022/11/27 09:45:56;;;;;;;3.30;1.80;;;;;;;10.45;42.69;93475.38;5053774;28;20036;-74
2022/11/27 09:48:32;;;;;;;4.65;1.70;;;;;;;12.22;38.46;93473.66;5053660;28;20101;-75
2022/11/27 09:51:00;;;;;;;3.83;1.88;;;;;;;12.81;37.36;93474.56;5052464;28;20037;-75
2022/11/27 09:53:46;;;;;;;4.03;1.90;;;;;;;13.74;37.59;93476.03;5038700;28;20068;-76
2022/11/27 09:56:15;;;;;;;4.65;1.98;;;;;;;13.51;36.95;93477.63;5076016;28;20033;-75
2022/11/27 09:58:45;;;;;;;3.65;1.95;;;;;;;12.66;36.75;93486.75;5073808;28;20383;-75
2022/11/27 10:01:22;;;;;;;3.60;1.80;;;;;;;11.65;38.00;93481.00;5073770;28;20086;-75
2022/11/27 10:03:48;;;;;;;3.45;1.98;;;;;;;10.87;40.32;93476.16;5072436;28;20086;-74
2022/11/27 10:07:05;;;;;;;3.30;1.65;;;;;;;10.94;40.26;93469.63;5073833;28;20036;-73
2022/11/27 10:09:42;;;;;;;5.20;2.03;;;;;;;11.32;46.00;93467.44;5029993;28;20075;-74
2022/11/27 10:12:08;;;;;;;3.40;1.77;;;;;;;11.66;39.62;93470.25;5073339;28;20035;-74
2022/11/27 10:14:54;;;;;;;3.08;1.55;;;;;;;11.23;39.31;93469.81;5055137;28;20113;-74
2022/11/27 10:17:28;;;;;;;4.35;1.88;;;;;;;10.36;40.87;93467.25;5073298;28;20025;-74
2022/11/27 10:20:27;;;;;;;3.67;1.80;;;;;;;10.07;41.25;93453.84;5072250;28;20028;-74
2022/11/27 10:22:59;;;;;;;4.55;2.13;;;;;;;10.01;42.48;93462.72;5071819;28;20469;-74
2022/11/27 10:25:51;;;;;;;5.70;1.70;;;;;;;9.59;46.04;93456.59;5073047;28;20436;-74
2022/11/27 10:28:32;;;;;;;4.68;1.80;;;;;;;10.14;45.45;93448.34;5066402;28;20040;-74
2022/11/27 10:31:12;;;;;;;3.58;1.60;;;;;;;10.04;43.89;93443.88;5072897;28;20042;-75
2022/11/27 10:33:49;;;;;;;3.60;1.73;;;;;;;10.34;44.10;93447.63;5055111;28;20119;-74
2022/11/27 10:36:20;;;;;;;3.88;2.00;;;;;;;10.11;43.84;93441.81;5071724;28;20041;-75
2022/11/27 10:38:47;;;;;;;3.90;1.70;;;;;;;10.08;44.23;93439.69;5072848;28;20047;-75
2022/11/27 10:41:21;;;;;;;3.63;1.75;;;;;;;10.43;42.75;93445.28;5038126;28;20024;-74
2022/11/27 10:43:51;;;;;;;6.05;1.85;;;;;;;10.21;43.04;93443.66;5072595;28;20039;-74
2022/11/27 10:46:28;;;;;;;4.60;1.92;;;;;;;10.25;43.48;93430.84;5055044;28;20135;-74
2022/11/27 10:48:54;;;;;;;3.92;1.90;;;;;;;10.23;44.26;93425.09;5072791;28;20082;-75
2022/11/27 10:51:28;;;;;;;3.53;1.88;;;;;;;10.19;44.98;93430.81;5054791;28;20036;-74
2022/11/27 10:53:54;;;;;;;4.35;1.80;;;;;;;10.20;43.47;93424.56;5072274;28;20040;-74
2022/11/27 10:56:41;;;;;;;5.10;2.00;;;;;;;10.03;44.04;93431.84;5072630;28;20498;-74
2022/11/27 10:59:21;;;;;;;4.60;2.00;;;;;;;9.68;45.00;93433.34;5072264;28;20041;-75
2022/11/27 11:01:48;;;;;;;4.18;2.10;;;;;;;9.87;45.37;93432.88;5054809;28;20036;-77
2022/11/27 11:04:19;;;;;;;3.58;1.98;;;;;;;9.95;45.48;93427.13;5073445;28;20437;-74
2022/11/27 11:06:48;;;;;;;3.25;1.58;;;;;;;9.96;44.47;93431.31;5072429;28;20509;-74
2022/11/27 11:09:28;;;;;;;3.95;1.98;;;;;;;9.91;45.03;93423.47;5072489;28;20394;-75
2022/11/27 11:12:05;;;;;;;6.40;2.17;;;;;;;9.75;45.18;93420.81;5071063;28;20036;-74
2022/11/27 11:14:30;;;;;;;3.75;2.10;;;;;;;9.55;44.77;93420.75;5072250;28;20028;-75
2022/11/27 11:16:56;;;;;;;3.38;1.67;;;;;;;9.36;46.44;93413.34;5051727;28;20081;-74
2022/11/27 11:19:22;;;;;;;4.10;1.90;;;;;;;9.46;46.51;93409.22;5037677;28;20051;-73
2022/11/27 11:21:48;;;;;;;5.18;2.10;;;;;;;9.23;46.92;93403.38;5054333;28;20032;-75
2022/11/27 11:24:21;;;;;;;3.47;1.55;;;;;;;9.29;47.25;93404.19;5054450;28;20048;-75
2022/11/27 11:26:50;;;;;;;3.60;1.80;;;;;;;8.95;48.63;93407.16;5054119;28;20096;-74
2022/11/27 11:29:40;;;;;;;3.53;1.88;;;;;;;9.09;47.97;93399.66;5071872;28;20123;-74
2022/11/27 11:32:13;;;;;;;4.57;1.80;;;;;;;8.77;48.27;93395.31;5037147;28;20029;-74
2022/11/27 11:34:44;;;;;;;1.88;1.15;;;;;;;8.61;48.21;93378.00;5071791;28;20123;-77
2022/11/27 11:37:27;;;;;;;3.58;1.85;;;;;;;8.92;49.25;93376.34;5053649;28;20119;-74
2022/11/27 11:40:18;;;;;;;4.63;1.80;;;;;;;8.83;50.04;93376.03;5054046;28;20119;-74
2022/11/27 11:42:57;;;;;;;4.28;1.90;;;;;;;9.04;50.30;93374.28;5048266;28;20418;-74
2022/11/27 11:45:24;;;;;;;9.00;4.40;;;;;;;9.04;51.43;93373.50;5053875;28;20067;-74
2022/11/27 11:47:58;;;;;;;2.88;1.52;;;;;;;9.28;50.93;93374.66;5053844;28;20024;-74